RKSIZYTX

Guest
Details From RKSI - Incheon Intl
To ZYTX - TAOXIAN
Flight Number -
Tags decoded
Created
Modified
Stats Distance 286 nm / 530 km
Max Altitude 0 ft / 0 m
Waypoints 4
Social Downloads 0
Likes 0
Share VATSIM

Download

Looking for another format? Having issues loading an existing format? Contact us
Advertisement - Login to hide

Notes

Requested: RKSI GK DDG SEY ZYTX

Route

RKSI DDG SEY ZYTX

ID Type Via Altitude Latitude Longitude Leg Dist Tot Dist Heading (true) Name
O RKSI APT - 0 ft / 0 m 37.46908˚ 126.45051˚ - 0 nm - Incheon Intl
DDG VOR - 0 ft / 0 m 40.26000˚ 124.28833˚ 195 nm 195 nm 330° / 328° DANDONG VOR-DME
SEY VOR - 0 ft / 0 m 41.63833˚ 123.48000˚ 90 nm 286 nm 336° / 336° SHENYANG VOR-DME
O ZYTX APT - 0 ft / 0 m 41.63984˚ 123.48343˚ 0 nm 286 nm 60° / 60° TAOXIAN

Altitude Profile

Advertisement - Login to hide

Weather


0- 5 10 15 20 25 30 35+ Temperature / ° C

Clouds and Precipitation
Forecast for 2017-12-14 00:00 UTC. Updated 3 minutes ago

Ground ~20,000 ft ~40,000 ft Winds

RKSI

Details ICAO RKSI (ICN)
Name Incheon Intl
Region South Korea
Timezone Unknown (UTC+0.0)
Stats Elevation 23 ft / 7 m (AMSL)
Location 37.469085° 126.450506°
Runways 2
Magnetic Variation 8.334° W

METAR

RKSI 132100Z 06006KT 040V100 CAVOK M10/M17 Q1033 NOSIG

Decode

TAF

TAF RKSI 131700Z 1318/1424 07006KT CAVOK TNM10/1321Z TX00/1405Z TNM07/1421Z TEMPO 1404/1411 33006KT

Decode

Departure Runways

ID Width Length Bearing (true) Bearing (mag) Surface Threshold Offset Overrun Length
15L 197 ft / 60 m 12,312 ft / 3,753 m 144.77° 153.10° Asphalt 0 ft / 0 m 394 ft / 120 m
15R 197 ft / 60 m 12,312 ft / 3,753 m 144.77° 153.10° Asphalt 0 ft / 0 m 394 ft / 120 m
33L 197 ft / 60 m 12,312 ft / 3,753 m 324.79° 333.12° Asphalt 0 ft / 0 m 394 ft / 120 m
33R 197 ft / 60 m 12,312 ft / 3,753 m 324.79° 333.12° Asphalt 0 ft / 0 m 394 ft / 120 m

ZYTX

Details ICAO ZYTX (SHE)
Name TAOXIAN
Region China
Timezone Asia/Shanghai (UTC+8.0)
Stats Elevation 198 ft / 60 m (AMSL)
Location 41.639840° 123.483425°
Runways 1
Magnetic Variation 9.068° W

METAR

ZYTX 132100Z 03003MPS 5000 FU NSC M20/M24 Q1035 NOSIG

Decode

TAF

Not found

Destination Runways

ID Width Length Bearing (true) Bearing (mag) Surface Threshold Offset Overrun Length
06 148 ft / 45 m 10,461 ft / 3,189 m 48.62° 57.69° Concrete 0 ft / 0 m 197 ft / 60 m
24 148 ft / 45 m 10,461 ft / 3,189 m 228.64° 237.71° Concrete 0 ft / 0 m 197 ft / 60 m

Approach Navaids

Runway Type Ident Frequency Range Bearing (true) Bearing (mag) Slope Elevation
06 Localiser IPU 110.50 MHz 18 nm / 33 km 51.79° 60.86° - 198 ft / 60 m (AMSL)
06 Glidescope IPU 110.50 MHz 10 nm / 19 km 48.63° 57.70° 3.00° 169 ft / 52 m (AMSL)
24 Localiser IKY 110.30 MHz 18 nm / 33 km 224.66° 233.72° - 198 ft / 60 m (AMSL)
24 Glidescope IKY 110.30 MHz 10 nm / 19 km 228.63° 237.70° 3.00° 198 ft / 60 m (AMSL)

Popular Alternatives